createdAt,value
2019-06-26T00:00:45.624Z,22.40
2019-06-26T00:03:14.223Z,22.40
2019-06-26T00:05:42.811Z,22.50
2019-06-26T00:08:11.485Z,22.50
2019-06-26T00:10:40.106Z,22.50
2019-06-26T00:13:24.875Z,22.50
2019-06-26T00:15:39.276Z,22.50
2019-06-26T00:18:07.883Z,22.50
2019-06-26T00:20:36.451Z,22.50
2019-06-26T00:23:05.314Z,22.40
2019-06-26T00:25:33.897Z,22.40
2019-06-26T00:28:02.522Z,22.50
2019-06-26T00:30:31.075Z,22.40
2019-06-26T00:32:59.712Z,22.20
2019-06-26T00:35:28.380Z,22.40
2019-06-26T00:37:56.955Z,22.40
2019-06-26T00:40:25.955Z,22.50
2019-06-26T00:42:54.521Z,22.70
2019-06-26T00:45:23.118Z,22.50
2019-06-26T00:47:52.635Z,22.40
2019-06-26T00:50:21.475Z,22.40
2019-06-26T00:52:50.039Z,22.50
2019-06-26T00:55:18.703Z,22.50
2019-06-26T00:57:47.278Z,22.50
2019-06-26T01:00:16.305Z,22.60
2019-06-26T01:02:44.937Z,22.60
2019-06-26T01:05:14.377Z,22.60
2019-06-26T01:07:43.028Z,22.50
2019-06-26T01:10:13.642Z,22.50
2019-06-26T01:12:42.236Z,22.50
2019-06-26T01:15:12.170Z,22.60
2019-06-26T01:17:40.757Z,22.50
2019-06-26T01:20:09.523Z,22.50
2019-06-26T01:22:38.315Z,22.50
2019-06-26T01:25:07.042Z,22.40
2019-06-26T01:27:35.639Z,22.40
2019-06-26T01:30:06.044Z,22.40
2019-06-26T01:32:34.874Z,22.40
2019-06-26T01:35:05.581Z,22.40
2019-06-26T01:37:34.513Z,22.40
2019-06-26T01:40:03.943Z,22.40
2019-06-26T01:42:32.510Z,22.30
2019-06-26T01:45:01.094Z,22.30
2019-06-26T01:47:29.841Z,22.30
2019-06-26T01:49:58.415Z,22.40
2019-06-26T01:52:27.002Z,22.40
2019-06-26T01:54:55.590Z,22.40
2019-06-26T01:57:24.171Z,22.40
2019-06-26T01:59:52.748Z,22.40
2019-06-26T02:02:21.324Z,22.40
2019-06-26T02:04:49.893Z,22.40
2019-06-26T02:07:18.465Z,22.40
2019-06-26T02:09:47.072Z,22.40
2019-06-26T02:12:15.636Z,22.30
2019-06-26T02:14:45.074Z,22.40
2019-06-26T02:17:13.714Z,22.30
2019-06-26T02:19:42.247Z,22.40
2019-06-26T02:22:10.888Z,22.30
2019-06-26T02:24:39.490Z,22.30
2019-06-26T02:27:08.508Z,22.30
2019-06-26T02:29:37.116Z,22.30
2019-06-26T02:32:05.758Z,22.40
2019-06-26T02:34:34.667Z,22.30
2019-06-26T02:37:03.275Z,22.30
2019-06-26T02:39:31.816Z,22.40
2019-06-26T02:42:00.487Z,22.30
2019-06-26T02:44:29.130Z,22.40
2019-06-26T02:47:17.575Z,22.30
2019-06-26T02:49:28.042Z,22.30
2019-06-26T02:51:56.660Z,22.20
2019-06-26T02:54:25.343Z,22.20
2019-06-26T02:56:53.882Z,22.20
2019-06-26T02:59:22.955Z,22.20
2019-06-26T03:01:51.606Z,22.20
2019-06-26T03:04:20.246Z,22.10
2019-06-26T03:06:48.900Z,22.10
2019-06-26T03:09:17.485Z,22.10
2019-06-26T03:11:46.073Z,22.10
2019-06-26T03:14:14.666Z,22.10
2019-06-26T03:16:43.238Z,22.10
2019-06-26T03:19:11.817Z,22.10
2019-06-26T03:21:40.407Z,22.10
2019-06-26T03:24:09.015Z,22.00
2019-06-26T03:26:37.614Z,22.00
2019-06-26T03:29:06.552Z,22.00
2019-06-26T03:31:35.426Z,22.00
2019-06-26T03:34:04.140Z,22.00
2019-06-26T03:36:32.783Z,22.00
2019-06-26T03:39:01.382Z,22.00
2019-06-26T03:41:29.951Z,22.00
2019-06-26T03:43:58.789Z,22.00
2019-06-26T03:46:27.445Z,22.00
2019-06-26T03:48:56.007Z,22.00
2019-06-26T03:51:24.669Z,21.90
2019-06-26T03:53:53.247Z,22.00
2019-06-26T03:56:21.848Z,22.00
2019-06-26T03:58:50.490Z,22.00
2019-06-26T04:01:19.061Z,22.00
2019-06-26T04:03:47.626Z,22.00
2019-06-26T04:06:16.292Z,22.00
2019-06-26T04:08:44.937Z,22.00
2019-06-26T04:11:13.554Z,22.00
2019-06-26T04:13:42.130Z,22.00
2019-06-26T04:16:10.753Z,22.00
2019-06-26T04:18:39.367Z,22.00
2019-06-26T04:21:07.946Z,22.10
2019-06-26T04:23:36.558Z,22.10
2019-06-26T04:26:05.330Z,22.10
2019-06-26T04:28:33.885Z,22.20
2019-06-26T04:31:02.472Z,22.20
2019-06-26T04:33:31.099Z,22.20
2019-06-26T04:35:59.846Z,22.30
2019-06-26T04:38:28.389Z,22.30
2019-06-26T04:40:56.970Z,22.30
2019-06-26T04:43:25.960Z,22.50
2019-06-26T04:45:58.529Z,22.70
2019-06-26T04:48:25.323Z,22.80
2019-06-26T04:50:53.874Z,23.00
2019-06-26T04:53:22.474Z,23.00
2019-06-26T04:55:51.113Z,23.20
2019-06-26T04:58:19.686Z,23.30
2019-06-26T05:00:48.243Z,23.40
2019-06-26T05:03:16.832Z,23.60
2019-06-26T05:05:45.401Z,23.70
2019-06-26T05:08:13.966Z,23.80
2019-06-26T05:10:42.616Z,23.90
2019-06-26T05:13:11.190Z,24.00
2019-06-26T05:15:40.259Z,24.10
2019-06-26T05:18:09.105Z,24.10
2019-06-26T05:20:37.679Z,24.30
2019-06-26T05:23:06.225Z,24.40
2019-06-26T05:25:34.961Z,24.50
2019-06-26T05:28:03.663Z,24.60
2019-06-26T05:30:32.283Z,24.80
2019-06-26T05:33:00.915Z,24.90
2019-06-26T05:35:29.500Z,25.10
2019-06-26T05:37:58.049Z,25.20
2019-06-26T05:40:26.611Z,25.30
2019-06-26T05:42:55.177Z,25.50
2019-06-26T05:45:23.814Z,25.50
2019-06-26T05:47:52.392Z,25.60
2019-06-26T05:50:21.392Z,25.70
2019-06-26T05:52:49.863Z,25.90
2019-06-26T05:55:18.408Z,25.90
2019-06-26T05:57:48.565Z,26.00
2019-06-26T06:00:17.711Z,26.10
2019-06-26T06:02:46.312Z,26.20
2019-06-26T06:05:15.143Z,26.30
2019-06-26T06:07:43.645Z,26.50
2019-06-26T06:10:12.850Z,26.60
2019-06-26T06:12:41.461Z,26.70
2019-06-26T06:15:10.589Z,26.70
2019-06-26T06:17:39.186Z,26.80
2019-06-26T06:20:08.508Z,26.90
2019-06-26T06:22:37.087Z,26.90
2019-06-26T06:25:05.994Z,27.00
2019-06-26T06:27:34.612Z,27.10
2019-06-26T06:30:03.696Z,27.20
2019-06-26T06:32:32.442Z,27.30
2019-06-26T06:35:01.011Z,27.30
2019-06-26T06:37:29.572Z,27.30
2019-06-26T06:39:58.242Z,27.40
2019-06-26T06:42:26.911Z,27.50
2019-06-26T06:44:55.487Z,27.60
2019-06-26T06:47:24.094Z,27.60
2019-06-26T06:49:53.042Z,27.80
2019-06-26T06:52:21.577Z,27.80
2019-06-26T06:54:50.092Z,27.90
2019-06-26T06:57:18.972Z,28.00
2019-06-26T06:59:47.760Z,28.10
2019-06-26T07:02:16.383Z,28.30
2019-06-26T07:04:44.944Z,28.30
2019-06-26T07:07:13.447Z,28.40
2019-06-26T07:09:42.128Z,28.50
2019-06-26T07:12:10.718Z,28.50
2019-06-26T07:14:39.275Z,28.60
2019-06-26T07:17:19.917Z,28.70
2019-06-26T07:19:38.189Z,28.70
2019-06-26T07:22:07.467Z,28.80
2019-06-26T07:24:36.099Z,28.80
2019-06-26T07:27:04.857Z,28.90
2019-06-26T07:29:33.481Z,28.90
2019-06-26T07:32:01.942Z,29.00
2019-06-26T07:34:30.559Z,29.20
2019-06-26T07:36:59.033Z,29.30
2019-06-26T07:39:27.600Z,29.30
2019-06-26T07:41:56.154Z,29.40
2019-06-26T07:44:25.142Z,29.50
2019-06-26T07:46:53.599Z,29.70
2019-06-26T07:49:22.388Z,29.80
2019-06-26T07:51:50.872Z,29.90
2019-06-26T07:54:19.417Z,29.90
2019-06-26T07:56:47.897Z,30.00
2019-06-26T07:59:16.463Z,30.00
2019-06-26T08:01:45.004Z,30.10
2019-06-26T08:04:13.552Z,30.20
2019-06-26T08:06:42.031Z,30.30
2019-06-26T08:09:10.591Z,30.40
2019-06-26T08:11:39.149Z,30.40
2019-06-26T08:14:07.646Z,30.50
2019-06-26T08:16:36.264Z,30.60
2019-06-26T08:19:04.906Z,30.70
2019-06-26T08:21:33.469Z,30.80
2019-06-26T08:24:02.069Z,31.00
2019-06-26T08:26:30.612Z,31.10
2019-06-26T08:28:59.174Z,31.10
2019-06-26T08:31:27.752Z,31.30
2019-06-26T08:33:56.351Z,31.40
2019-06-26T08:36:25.011Z,31.40
2019-06-26T08:38:53.535Z,31.50
2019-06-26T08:41:22.109Z,31.70
2019-06-26T08:43:50.658Z,31.80
2019-06-26T08:46:19.282Z,31.90
2019-06-26T08:48:51.752Z,32.00
2019-06-26T08:51:18.225Z,32.10
2019-06-26T08:53:46.827Z,32.20
2019-06-26T08:56:15.404Z,32.30
2019-06-26T08:58:43.958Z,32.50
2019-06-26T09:01:12.516Z,32.60
2019-06-26T09:03:42.144Z,32.70
2019-06-26T09:06:10.741Z,32.80
2019-06-26T09:08:39.239Z,32.90
2019-06-26T09:11:07.807Z,33.10
2019-06-26T09:13:36.447Z,33.10
2019-06-26T09:16:05.140Z,33.20
2019-06-26T09:18:35.806Z,33.20
2019-06-26T09:21:04.550Z,33.20
2019-06-26T09:23:33.194Z,33.20
2019-06-26T09:26:01.774Z,33.30
2019-06-26T09:28:30.353Z,33.30
2019-06-26T09:30:58.926Z,33.40
2019-06-26T09:33:27.842Z,33.40
2019-06-26T09:35:56.555Z,33.50
2019-06-26T09:38:25.231Z,33.50
2019-06-26T09:40:53.795Z,33.50
2019-06-26T09:43:22.351Z,33.50
2019-06-26T09:45:50.922Z,33.40
2019-06-26T09:48:19.558Z,33.50
2019-06-26T09:50:48.122Z,33.50
2019-06-26T09:53:16.674Z,33.50
2019-06-26T09:55:45.171Z,33.50
2019-06-26T09:58:13.872Z,33.60
2019-06-26T10:00:42.483Z,33.80
2019-06-26T10:03:11.043Z,33.80
2019-06-26T10:05:39.681Z,33.90
2019-06-26T10:08:08.255Z,33.80
2019-06-26T10:10:36.899Z,33.80
2019-06-26T10:13:05.528Z,33.80
2019-06-26T10:15:34.094Z,33.90
2019-06-26T10:18:02.764Z,33.90
2019-06-26T10:20:31.597Z,34.00
2019-06-26T10:23:00.205Z,33.90
2019-06-26T10:25:28.832Z,34.00
2019-06-26T10:27:57.406Z,34.00
2019-06-26T10:30:26.133Z,33.90
2019-06-26T10:32:55.019Z,33.90
2019-06-26T10:35:23.704Z,34.00
2019-06-26T10:37:52.378Z,34.00
2019-06-26T10:40:21.098Z,34.00
2019-06-26T10:42:49.658Z,34.20
2019-06-26T10:45:19.486Z,34.30
2019-06-26T10:47:48.405Z,34.40
2019-06-26T10:50:17.302Z,34.50
2019-06-26T10:52:46.150Z,34.50
2019-06-26T10:55:15.074Z,34.50
2019-06-26T10:57:43.618Z,34.50
2019-06-26T11:00:14.565Z,34.50
2019-06-26T11:02:43.547Z,34.40
2019-06-26T11:05:13.989Z,34.50
2019-06-26T11:07:42.614Z,34.50
2019-06-26T11:10:12.615Z,34.60
2019-06-26T11:12:42.154Z,34.70
2019-06-26T11:15:11.332Z,34.80
2019-06-26T11:17:39.994Z,34.90
2019-06-26T11:20:10.283Z,35.00
2019-06-26T11:22:38.963Z,35.10
2019-06-26T11:25:08.088Z,35.10
2019-06-26T11:27:36.686Z,35.10
2019-06-26T11:30:11.088Z,35.10
2019-06-26T11:32:39.707Z,35.20
2019-06-26T11:35:08.634Z,35.20
2019-06-26T11:37:37.546Z,35.30
2019-06-26T11:40:08.493Z,35.30
2019-06-26T11:42:37.229Z,35.40
2019-06-26T11:45:09.346Z,35.40
2019-06-26T11:47:38.266Z,35.50
2019-06-26T11:50:08.947Z,35.70
2019-06-26T11:52:37.680Z,35.90
2019-06-26T11:55:10.281Z,36.00
2019-06-26T11:57:39.007Z,36.10
2019-06-26T12:00:10.067Z,36.10
2019-06-26T12:02:38.782Z,36.20
2019-06-26T12:05:07.994Z,36.20
2019-06-26T12:07:36.639Z,36.30
2019-06-26T12:10:08.534Z,36.60
2019-06-26T12:12:37.281Z,36.90
2019-06-26T12:15:06.923Z,37.00
2019-06-26T12:17:35.869Z,37.10
2019-06-26T12:20:18.086Z,37.20
2019-06-26T12:22:37.353Z,37.40
2019-06-26T12:25:07.059Z,37.60
2019-06-26T12:27:35.670Z,37.70
2019-06-26T12:30:06.183Z,37.80
2019-06-26T12:32:41.858Z,37.80
2019-06-26T12:35:07.843Z,37.70
2019-06-26T12:37:38.199Z,37.80
2019-06-26T12:40:07.877Z,38.00
2019-06-26T12:42:36.571Z,38.10
2019-06-26T12:45:08.540Z,38.20
2019-06-26T12:47:37.134Z,38.30
2019-06-26T12:50:07.791Z,38.20
2019-06-26T12:52:36.328Z,38.10
2019-06-26T12:55:08.390Z,37.80
2019-06-26T12:57:36.940Z,37.60
2019-06-26T13:00:10.385Z,37.80
2019-06-26T13:02:39.001Z,38.00
2019-06-26T13:05:08.223Z,38.20
2019-06-26T13:07:36.919Z,38.30
2019-06-26T13:10:07.936Z,38.30
2019-06-26T13:12:37.081Z,38.40
2019-06-26T13:15:08.567Z,38.50
2019-06-26T13:17:37.218Z,38.50
2019-06-26T13:20:10.075Z,38.50
2019-06-26T13:22:38.664Z,38.50
2019-06-26T13:25:08.762Z,38.20
2019-06-26T13:27:37.415Z,38.20
2019-06-26T13:30:07.822Z,38.20
2019-06-26T13:32:36.715Z,37.80
2019-06-26T13:35:07.234Z,37.30
2019-06-26T13:37:35.868Z,36.90
2019-06-26T13:40:06.281Z,36.70
2019-06-26T13:42:34.898Z,36.50
2019-06-26T13:45:04.957Z,36.20
2019-06-26T13:47:33.651Z,36.10
2019-06-26T13:50:03.082Z,36.20
2019-06-26T13:52:31.669Z,36.10
2019-06-26T13:55:00.245Z,35.90
2019-06-26T13:57:29.184Z,35.80
2019-06-26T13:59:57.755Z,35.80
2019-06-26T14:02:26.335Z,36.00
2019-06-26T14:04:54.954Z,36.20
2019-06-26T14:07:23.453Z,36.20
2019-06-26T14:09:52.058Z,36.30
2019-06-26T14:12:20.705Z,36.60
2019-06-26T14:14:57.315Z,36.90
2019-06-26T14:17:19.504Z,36.80
2019-06-26T14:19:48.085Z,36.60
2019-06-26T14:22:17.037Z,36.60
2019-06-26T14:24:46.043Z,36.30
2019-06-26T14:27:14.610Z,35.80
2019-06-26T14:29:43.189Z,35.50
2019-06-26T14:32:11.738Z,35.40
2019-06-26T14:34:40.261Z,35.50
2019-06-26T14:37:08.891Z,35.70
2019-06-26T14:39:40.855Z,36.00
2019-06-26T14:42:08.027Z,36.10
2019-06-26T14:44:36.716Z,36.10
2019-06-26T14:47:05.265Z,36.00
2019-06-26T14:49:33.940Z,36.00
2019-06-26T14:52:02.523Z,36.10
2019-06-26T14:54:31.096Z,36.20
2019-06-26T14:56:59.661Z,36.20
2019-06-26T14:59:28.474Z,36.30
2019-06-26T15:01:57.041Z,36.10
2019-06-26T15:04:25.692Z,36.00
2019-06-26T15:06:54.604Z,35.80
2019-06-26T15:09:23.159Z,35.60
2019-06-26T15:11:51.813Z,35.60
2019-06-26T15:14:20.457Z,35.60
2019-06-26T15:16:49.099Z,35.70
2019-06-26T15:19:17.823Z,35.80
2019-06-26T15:21:57.741Z,35.80
2019-06-26T15:24:16.655Z,35.90
2019-06-26T15:26:45.231Z,35.90
2019-06-26T15:29:13.809Z,35.90
2019-06-26T15:31:42.448Z,35.90
2019-06-26T15:34:11.037Z,36.00
2019-06-26T15:36:39.611Z,36.00
2019-06-26T15:39:09.535Z,35.90
2019-06-26T15:41:38.117Z,35.80
2019-06-26T15:44:06.770Z,35.60
2019-06-26T15:46:35.410Z,35.50
2019-06-26T15:49:04.045Z,35.40
2019-06-26T15:51:32.993Z,35.50
2019-06-26T15:54:01.544Z,35.60
2019-06-26T15:56:30.141Z,35.60
2019-06-26T15:58:58.700Z,35.60
2019-06-26T16:01:27.367Z,35.60
2019-06-26T16:03:55.925Z,35.50
2019-06-26T16:06:24.575Z,35.50
2019-06-26T16:08:53.259Z,35.30
2019-06-26T16:11:21.831Z,35.20
2019-06-26T16:13:50.385Z,35.20
2019-06-26T16:16:18.979Z,35.20
2019-06-26T16:18:49.175Z,35.10
2019-06-26T16:21:17.852Z,35.00
2019-06-26T16:23:46.399Z,34.90
2019-06-26T16:26:14.994Z,34.90
2019-06-26T16:28:43.554Z,34.80
2019-06-26T16:31:12.569Z,34.70
2019-06-26T16:33:41.469Z,34.70
2019-06-26T16:36:10.060Z,34.70
2019-06-26T16:38:38.858Z,34.60
2019-06-26T16:41:07.489Z,34.50
2019-06-26T16:43:36.170Z,34.50
2019-06-26T16:46:05.219Z,34.40
2019-06-26T16:48:33.779Z,34.40
2019-06-26T16:51:02.404Z,34.30
2019-06-26T16:53:30.913Z,34.30
2019-06-26T16:55:59.514Z,34.30
2019-06-26T16:58:28.089Z,34.20
2019-06-26T17:00:56.743Z,34.10
2019-06-26T17:03:25.303Z,34.00
2019-06-26T17:05:53.897Z,34.00
2019-06-26T17:08:22.495Z,33.90
2019-06-26T17:10:51.155Z,33.90
2019-06-26T17:13:20.022Z,33.80
2019-06-26T17:15:48.587Z,33.80
2019-06-26T17:18:17.250Z,33.70
2019-06-26T17:20:45.938Z,33.60
2019-06-26T17:23:14.870Z,33.60
2019-06-26T17:25:43.592Z,33.60
2019-06-26T17:28:12.169Z,33.50
2019-06-26T17:30:40.740Z,33.40
2019-06-26T17:33:09.346Z,33.40
2019-06-26T17:35:37.949Z,33.40
2019-06-26T17:38:06.615Z,33.30
2019-06-26T17:40:35.521Z,33.20
2019-06-26T17:43:12.521Z,33.10
2019-06-26T17:45:34.454Z,33.00
2019-06-26T17:48:02.962Z,33.00
2019-06-26T17:50:31.584Z,32.90
2019-06-26T17:53:00.504Z,32.90
2019-06-26T17:55:29.112Z,32.90
2019-06-26T17:57:57.678Z,32.80
2019-06-26T18:00:32.251Z,32.80
2019-06-26T18:03:01.096Z,32.70
2019-06-26T18:05:29.758Z,32.60
2019-06-26T18:07:58.324Z,32.50
2019-06-26T18:10:26.931Z,32.40
2019-06-26T18:12:55.566Z,32.40
2019-06-26T18:15:24.153Z,32.30
2019-06-26T18:17:52.703Z,32.20
2019-06-26T18:20:23.241Z,32.10
2019-06-26T18:23:05.803Z,32.10
2019-06-26T18:25:22.527Z,32.00
2019-06-26T18:27:51.338Z,31.90
2019-06-26T18:30:22.705Z,31.90
2019-06-26T18:32:51.587Z,31.80
2019-06-26T18:35:20.189Z,31.70
2019-06-26T18:37:48.783Z,31.60
2019-06-26T18:40:18.203Z,31.50
2019-06-26T18:42:46.814Z,31.40
2019-06-26T18:45:16.193Z,31.40
2019-06-26T18:47:45.127Z,31.30
2019-06-26T18:50:14.059Z,31.20
2019-06-26T18:52:42.640Z,31.20
2019-06-26T18:55:11.329Z,31.20
2019-06-26T18:57:39.921Z,31.10
2019-06-26T19:00:09.898Z,31.10
2019-06-26T19:02:38.491Z,31.00
2019-06-26T19:05:08.668Z,30.90
2019-06-26T19:07:37.309Z,31.00
2019-06-26T19:10:07.770Z,30.90
2019-06-26T19:12:36.489Z,30.90
2019-06-26T19:15:06.492Z,30.80
2019-06-26T19:17:35.367Z,30.80
2019-06-26T19:20:08.604Z,30.70
2019-06-26T19:22:37.335Z,30.70
2019-06-26T19:25:07.930Z,30.70
2019-06-26T19:27:36.657Z,30.60
2019-06-26T19:30:08.901Z,30.60
2019-06-26T19:32:37.903Z,30.50
2019-06-26T19:35:18.678Z,30.50
2019-06-26T19:37:37.785Z,30.40
2019-06-26T19:40:08.658Z,30.40
2019-06-26T19:42:37.310Z,30.40
2019-06-26T19:45:08.115Z,30.40
2019-06-26T19:47:36.750Z,30.30
2019-06-26T19:50:09.312Z,30.30
2019-06-26T19:52:38.163Z,30.20
2019-06-26T19:55:07.182Z,30.10
2019-06-26T19:57:35.824Z,30.10
2019-06-26T20:00:06.832Z,30.10
2019-06-26T20:02:35.411Z,30.00
2019-06-26T20:05:06.788Z,30.00
2019-06-26T20:07:35.649Z,29.80
2019-06-26T20:10:06.605Z,29.80
2019-06-26T20:12:35.639Z,29.70
2019-06-26T20:15:05.949Z,29.70
2019-06-26T20:17:34.716Z,29.60
2019-06-26T20:20:05.370Z,29.60
2019-06-26T20:22:34.036Z,29.50
2019-06-26T20:25:02.716Z,29.40
2019-06-26T20:27:31.334Z,29.40
2019-06-26T20:29:59.952Z,29.30
2019-06-26T20:32:28.542Z,29.30
2019-06-26T20:34:57.113Z,29.20
2019-06-26T20:37:25.993Z,29.10
2019-06-26T20:39:54.540Z,29.00
2019-06-26T20:42:23.411Z,29.00
2019-06-26T20:44:52.034Z,28.90
2019-06-26T20:47:20.679Z,28.90
2019-06-26T20:49:53.421Z,28.90
2019-06-26T20:52:19.880Z,28.90
2019-06-26T20:55:00.796Z,28.80
2019-06-26T20:57:18.839Z,28.70
2019-06-26T20:59:47.408Z,28.70
2019-06-26T21:02:16.054Z,28.60
2019-06-26T21:04:44.697Z,28.60
2019-06-26T21:07:13.211Z,28.60
2019-06-26T21:09:41.772Z,28.50
2019-06-26T21:12:10.963Z,28.50
2019-06-26T21:14:39.526Z,28.50
2019-06-26T21:17:08.080Z,28.40
2019-06-26T21:19:36.647Z,28.30
2019-06-26T21:22:08.685Z,28.30
2019-06-26T21:24:35.416Z,28.20
2019-06-26T21:27:04.204Z,28.20
2019-06-26T21:29:32.706Z,28.20
2019-06-26T21:32:01.300Z,28.20
2019-06-26T21:34:30.176Z,28.10
2019-06-26T21:36:59.066Z,28.00
2019-06-26T21:39:27.628Z,28.00
2019-06-26T21:41:56.223Z,27.90
2019-06-26T21:44:24.787Z,27.90
2019-06-26T21:46:53.686Z,27.80
2019-06-26T21:49:22.343Z,27.70
2019-06-26T21:51:51.063Z,27.70
2019-06-26T21:54:20.051Z,27.60
2019-06-26T21:56:48.930Z,27.50
2019-06-26T21:59:17.740Z,27.50
2019-06-26T22:01:46.360Z,27.40
2019-06-26T22:04:15.203Z,27.40
2019-06-26T22:06:44.343Z,27.30
2019-06-26T22:09:12.961Z,27.20
2019-06-26T22:11:41.607Z,27.10
2019-06-26T22:14:10.244Z,27.10
2019-06-26T22:16:38.831Z,27.00
2019-06-26T22:19:07.618Z,26.90
2019-06-26T22:21:36.189Z,26.90
2019-06-26T22:24:05.345Z,26.80
2019-06-26T22:26:34.155Z,26.70
2019-06-26T22:29:02.777Z,26.70
2019-06-26T22:31:31.426Z,26.60
2019-06-26T22:34:00.070Z,26.50
2019-06-26T22:36:28.697Z,26.50
2019-06-26T22:38:57.335Z,26.40
2019-06-26T22:41:25.930Z,26.30
2019-06-26T22:43:54.795Z,26.20
2019-06-26T22:46:23.356Z,26.10
2019-06-26T22:48:51.993Z,26.00
2019-06-26T22:51:20.697Z,26.00
2019-06-26T22:53:49.551Z,25.90
2019-06-26T22:56:18.119Z,25.80
2019-06-26T22:58:46.702Z,25.80
2019-06-26T23:01:15.285Z,25.70
2019-06-26T23:03:43.857Z,25.70
2019-06-26T23:06:12.451Z,25.70
2019-06-26T23:08:41.012Z,25.70
2019-06-26T23:11:09.673Z,25.70
2019-06-26T23:13:38.218Z,25.70
2019-06-26T23:16:06.901Z,25.60
2019-06-26T23:18:35.586Z,25.50
2019-06-26T23:21:04.187Z,25.50
2019-06-26T23:23:32.756Z,25.40
2019-06-26T23:26:01.350Z,25.40
2019-06-26T23:28:29.895Z,25.30
2019-06-26T23:30:58.773Z,25.30
2019-06-26T23:33:27.581Z,25.20
2019-06-26T23:35:56.177Z,25.20
2019-06-26T23:38:24.725Z,25.20
2019-06-26T23:40:53.308Z,25.10
2019-06-26T23:43:21.996Z,25.10
2019-06-26T23:45:50.593Z,25.10
2019-06-26T23:48:19.158Z,25.00
2019-06-26T23:50:47.719Z,25.00
2019-06-26T23:53:16.216Z,24.90
2019-06-26T23:55:45.061Z,24.80
2019-06-26T23:58:13.645Z,24.80
